createdAt,value
2022-09-18T00:01:42.111Z,9.80
2022-09-18T00:04:14.793Z,9.90
2022-09-18T00:06:46.198Z,9.90
2022-09-18T00:09:16.688Z,9.90
2022-09-18T00:11:50.060Z,9.80
2022-09-18T00:14:23.549Z,9.80
2022-09-18T00:16:52.150Z,9.70
2022-09-18T00:19:21.578Z,9.70
2022-09-18T00:21:52.499Z,9.80
2022-09-18T00:24:22.291Z,9.80
2022-09-18T00:26:51.203Z,9.80
2022-09-18T00:29:20.778Z,9.80
2022-09-18T00:31:50.001Z,9.80
2022-09-18T00:34:18.515Z,9.80
2022-09-18T00:36:46.797Z,9.80
2022-09-18T00:39:15.491Z,9.90
2022-09-18T00:41:45.860Z,9.90
2022-09-18T00:44:40.717Z,9.90
2022-09-18T00:47:22.025Z,9.90
2022-09-18T00:49:56.977Z,9.90
2022-09-18T00:52:30.779Z,9.90
2022-09-18T00:55:06.596Z,9.90
2022-09-18T00:57:41.250Z,10.00
2022-09-18T01:00:14.490Z,10.00
2022-09-18T01:02:44.685Z,10.00
2022-09-18T01:05:15.117Z,10.00
2022-09-18T01:08:02.866Z,10.10
2022-09-18T01:10:52.963Z,10.10
2022-09-18T01:13:36.237Z,10.10
2022-09-18T01:16:18.443Z,10.10
2022-09-18T01:19:11.136Z,10.10
2022-09-18T01:21:50.559Z,10.10
2022-09-18T01:24:45.046Z,10.10
2022-09-18T01:27:27.121Z,10.20
2022-09-18T01:30:06.686Z,10.10
2022-09-18T01:32:44.159Z,10.10
2022-09-18T01:38:20.419Z,10.00
2022-09-18T01:40:57.221Z,9.90
2022-09-18T01:43:30.643Z,9.90
2022-09-18T01:46:09.420Z,9.90
2022-09-18T01:48:46.270Z,9.90
2022-09-18T01:51:21.179Z,9.90
2022-09-18T01:53:57.999Z,9.80
2022-09-18T01:56:32.918Z,9.80
2022-09-18T01:59:07.046Z,9.80
2022-09-18T02:01:58.169Z,9.70
2022-09-18T02:04:33.663Z,9.70
2022-09-18T02:07:14.167Z,9.60
2022-09-18T02:09:44.346Z,9.60
2022-09-18T02:12:21.631Z,9.60
2022-09-18T02:14:58.681Z,9.60
2022-09-18T02:17:45.043Z,9.60
2022-09-18T02:20:20.637Z,9.50
2022-09-18T02:22:54.946Z,9.50
2022-09-18T02:25:32.484Z,9.60
2022-09-18T02:28:03.814Z,9.50
2022-09-18T02:30:32.828Z,9.50
2022-09-18T02:33:02.509Z,9.40
2022-09-18T02:35:43.539Z,9.40
2022-09-18T02:38:27.607Z,9.40
2022-09-18T02:41:08.374Z,9.50
2022-09-18T02:43:54.532Z,9.50
2022-09-18T02:46:39.274Z,9.60
2022-09-18T02:49:15.580Z,9.70
2022-09-18T02:51:54.937Z,9.80
2022-09-18T02:54:33.736Z,9.70
2022-09-18T02:57:10.749Z,9.70
2022-09-18T02:59:44.166Z,9.70
2022-09-18T03:02:15.328Z,9.70
2022-09-18T03:04:45.647Z,9.80
2022-09-18T03:07:20.576Z,9.80
2022-09-18T03:09:50.899Z,9.90
2022-09-18T03:12:20.432Z,9.80
2022-09-18T03:14:50.080Z,9.80
2022-09-18T03:17:19.302Z,9.80
2022-09-18T03:19:49.051Z,9.80
2022-09-18T03:22:17.377Z,9.80
2022-09-18T03:24:45.655Z,9.70
2022-09-18T03:27:18.025Z,9.70
2022-09-18T03:29:46.956Z,9.70
2022-09-18T03:32:18.629Z,9.70
2022-09-18T03:34:50.918Z,9.60
2022-09-18T03:37:19.498Z,9.60
2022-09-18T03:39:49.230Z,9.60
2022-09-18T03:42:17.503Z,9.50
2022-09-18T03:44:45.889Z,9.60
2022-09-18T03:47:21.950Z,9.60
2022-09-18T03:49:51.571Z,9.60
2022-09-18T03:52:21.390Z,9.60
2022-09-18T03:55:01.055Z,9.60
2022-09-18T03:57:53.006Z,9.70
2022-09-18T04:00:42.081Z,9.50
2022-09-18T04:03:18.356Z,9.60
2022-09-18T04:06:20.085Z,9.50
2022-09-18T04:09:09.195Z,9.60
2022-09-18T04:11:45.029Z,9.50
2022-09-18T04:14:30.998Z,9.50
2022-09-18T04:17:00.775Z,9.50
2022-09-18T04:19:29.804Z,9.40
2022-09-18T04:22:01.119Z,9.40
2022-09-18T04:24:29.625Z,9.40
2022-09-18T04:26:58.016Z,9.40
2022-09-18T04:29:28.959Z,9.30
2022-09-18T04:31:58.108Z,9.30
2022-09-18T04:34:27.527Z,9.30
2022-09-18T04:36:55.786Z,9.40
2022-09-18T04:39:32.432Z,9.40
2022-09-18T04:42:05.221Z,9.50
2022-09-18T04:44:34.241Z,9.60
2022-09-18T04:47:03.654Z,9.60
2022-09-18T04:49:32.014Z,9.70
2022-09-18T04:52:02.185Z,9.80
2022-09-18T04:54:32.342Z,9.70
2022-09-18T04:57:00.662Z,9.80
2022-09-18T04:59:29.443Z,9.80
2022-09-18T05:02:00.315Z,9.90
2022-09-18T05:04:29.206Z,9.90
2022-09-18T05:07:05.016Z,9.90
2022-09-18T05:09:36.509Z,9.90
2022-09-18T05:12:07.299Z,9.90
2022-09-18T05:14:37.365Z,10.00
2022-09-18T05:17:09.250Z,10.10
2022-09-18T05:19:40.638Z,10.10
2022-09-18T05:22:14.955Z,10.20
2022-09-18T05:24:50.167Z,10.30
2022-09-18T05:27:21.459Z,10.30
2022-09-18T05:29:53.116Z,10.40
2022-09-18T05:32:27.866Z,10.40
2022-09-18T05:34:56.176Z,10.50
2022-09-18T05:37:24.545Z,10.60
2022-09-18T05:39:58.009Z,10.80
2022-09-18T05:42:26.287Z,11.00
2022-09-18T05:44:57.566Z,11.20
2022-09-18T05:47:28.871Z,11.40
2022-09-18T05:49:57.166Z,11.40
2022-09-18T05:52:26.089Z,11.50
2022-09-18T05:54:54.959Z,11.50
2022-09-18T05:57:24.904Z,11.40
2022-09-18T05:59:53.290Z,11.40
2022-09-18T06:02:21.587Z,11.40
2022-09-18T06:05:03.970Z,11.30
2022-09-18T06:07:32.745Z,11.10
2022-09-18T06:10:04.283Z,11.10
2022-09-18T06:12:34.556Z,11.10
2022-09-18T06:15:04.977Z,11.10
2022-09-18T06:17:35.353Z,11.30
2022-09-18T06:20:09.167Z,11.80
2022-09-18T06:22:38.295Z,12.40
2022-09-18T06:25:10.368Z,12.80
2022-09-18T06:27:41.093Z,12.80
2022-09-18T06:30:10.552Z,12.70
2022-09-18T06:32:39.334Z,12.60
2022-09-18T06:35:10.237Z,12.60
2022-09-18T06:37:39.081Z,12.80
2022-09-18T06:40:12.742Z,13.20
2022-09-18T06:43:06.219Z,13.40
2022-09-18T06:46:07.895Z,13.70
2022-09-18T06:48:41.357Z,14.00
2022-09-18T06:51:10.486Z,14.40
2022-09-18T06:54:13.997Z,14.80
2022-09-18T06:56:43.503Z,14.90
2022-09-18T06:59:15.549Z,14.70
2022-09-18T07:01:44.280Z,14.60
2022-09-18T07:04:33.234Z,14.20
2022-09-18T07:07:01.807Z,13.70
2022-09-18T07:09:30.739Z,13.30
2022-09-18T07:12:17.682Z,12.90
2022-09-18T07:14:51.608Z,12.80
2022-09-18T07:17:26.077Z,12.50
2022-09-18T07:19:55.779Z,12.40
2022-09-18T07:22:31.549Z,12.40
2022-09-18T07:24:59.807Z,12.60
2022-09-18T07:27:30.371Z,13.20
2022-09-18T07:30:00.518Z,13.70
2022-09-18T07:32:29.535Z,13.60
2022-09-18T07:34:59.437Z,13.60
2022-09-18T07:37:33.530Z,14.00
2022-09-18T07:40:13.251Z,14.80
2022-09-18T07:43:08.770Z,15.50
2022-09-18T07:45:41.247Z,15.90
2022-09-18T07:48:10.104Z,16.30
2022-09-18T07:50:46.355Z,16.70
2022-09-18T07:53:14.613Z,16.80
2022-09-18T07:55:47.299Z,16.90
2022-09-18T07:58:16.118Z,17.10
2022-09-18T08:01:04.644Z,17.30
2022-09-18T08:03:40.516Z,17.60
2022-09-18T08:06:29.907Z,18.00
2022-09-18T08:09:21.258Z,18.30
2022-09-18T08:12:13.057Z,18.50
2022-09-18T08:15:09.931Z,18.60
2022-09-18T08:18:09.530Z,18.50
2022-09-18T08:20:59.327Z,18.30
2022-09-18T08:23:39.189Z,18.00
2022-09-18T08:26:07.848Z,17.90
2022-09-18T08:28:36.615Z,17.60
2022-09-18T08:31:07.155Z,17.60
2022-09-18T08:33:36.956Z,17.60
2022-09-18T08:36:07.386Z,17.60
2022-09-18T08:38:39.093Z,18.10
2022-09-18T08:41:46.641Z,18.60
2022-09-18T08:44:24.222Z,19.30
2022-09-18T08:47:03.747Z,19.50
2022-09-18T08:49:40.813Z,19.20
2022-09-18T08:52:17.612Z,18.40
2022-09-18T08:55:02.602Z,18.10
2022-09-18T08:57:46.508Z,17.70
2022-09-18T09:00:22.339Z,17.60
2022-09-18T09:03:24.115Z,17.30
2022-09-18T09:06:00.955Z,17.20
2022-09-18T09:09:22.509Z,17.40
2022-09-18T09:12:03.630Z,17.80
2022-09-18T09:15:00.007Z,17.80
2022-09-18T09:17:41.651Z,17.50
2022-09-18T09:20:25.429Z,16.90
2022-09-18T09:23:07.848Z,16.50
2022-09-18T09:25:49.090Z,16.30
2022-09-18T09:28:52.640Z,16.40
2022-09-18T09:31:47.726Z,16.90
2022-09-18T09:34:33.248Z,17.30
2022-09-18T09:37:17.733Z,17.20
2022-09-18T09:39:57.215Z,17.00
2022-09-18T09:42:35.731Z,16.80
2022-09-18T09:45:17.078Z,16.50
2022-09-18T09:47:56.288Z,15.90
2022-09-18T09:50:42.031Z,15.70
2022-09-18T09:53:14.095Z,15.40
2022-09-18T09:56:03.804Z,15.50
2022-09-18T09:58:51.033Z,15.50
2022-09-18T10:01:27.058Z,15.50
2022-09-18T10:04:18.134Z,15.60
2022-09-18T10:06:57.377Z,15.70
2022-09-18T10:09:44.515Z,15.90
2022-09-18T10:12:32.046Z,15.80
2022-09-18T10:15:18.370Z,15.70
2022-09-18T10:17:51.013Z,15.50
2022-09-18T10:20:28.277Z,15.50
2022-09-18T10:23:06.958Z,15.50
2022-09-18T10:25:45.187Z,15.50
2022-09-18T10:28:15.794Z,15.40
2022-09-18T10:30:59.445Z,15.30
2022-09-18T10:33:37.029Z,15.10
2022-09-18T10:36:25.957Z,14.90
2022-09-18T10:38:56.478Z,14.70
2022-09-18T10:41:40.459Z,14.60
2022-09-18T10:44:28.049Z,14.80
2022-09-18T10:47:08.685Z,15.00
2022-09-18T10:49:50.659Z,15.10
2022-09-18T10:52:31.857Z,15.10
2022-09-18T10:55:16.767Z,15.00
2022-09-18T10:58:08.174Z,15.00
2022-09-18T11:00:49.477Z,15.10
2022-09-18T11:03:33.449Z,15.20
2022-09-18T11:06:05.520Z,15.30
2022-09-18T11:08:42.047Z,15.20
2022-09-18T11:11:22.198Z,15.00
2022-09-18T11:13:58.603Z,14.80
2022-09-18T11:16:36.884Z,14.80
2022-09-18T11:19:20.111Z,14.70
2022-09-18T11:21:52.459Z,14.50
2022-09-18T11:24:27.306Z,14.40
2022-09-18T11:27:16.829Z,14.20
2022-09-18T11:29:45.884Z,14.00
2022-09-18T11:32:25.187Z,13.90
2022-09-18T11:35:00.249Z,13.80
2022-09-18T11:37:38.315Z,13.80
2022-09-18T11:40:19.464Z,14.00
2022-09-18T11:42:54.000Z,14.10
2022-09-18T11:45:47.431Z,14.20
2022-09-18T11:48:28.139Z,14.20
2022-09-18T11:51:01.522Z,14.30
2022-09-18T11:53:39.797Z,14.20
2022-09-18T11:56:16.992Z,14.20
2022-09-18T11:58:54.671Z,14.30
2022-09-18T12:01:34.238Z,14.20
2022-09-18T12:04:14.886Z,14.20
2022-09-18T12:06:52.142Z,14.10
2022-09-18T12:09:31.561Z,14.20
2022-09-18T12:12:09.718Z,14.20
2022-09-18T12:14:48.087Z,14.40
2022-09-18T12:17:31.002Z,14.40
2022-09-18T12:20:10.183Z,14.40
2022-09-18T12:22:46.721Z,14.30
2022-09-18T12:25:19.039Z,14.30
2022-09-18T12:28:32.972Z,14.40
2022-09-18T12:31:15.313Z,14.40
2022-09-18T12:33:57.995Z,14.50
2022-09-18T12:37:05.463Z,14.50
2022-09-18T12:40:03.560Z,14.60
2022-09-18T12:42:49.027Z,14.70
2022-09-18T12:45:52.066Z,14.60
2022-09-18T12:48:44.257Z,14.50
2022-09-18T12:51:36.663Z,14.60
2022-09-18T12:54:33.434Z,14.60
2022-09-18T12:57:23.405Z,14.50
2022-09-18T12:59:58.845Z,14.30
2022-09-18T13:02:42.722Z,14.30
2022-09-18T13:05:18.733Z,14.40
2022-09-18T13:07:55.810Z,14.40
2022-09-18T13:10:32.763Z,14.30
2022-09-18T13:13:10.865Z,14.20
2022-09-18T13:15:45.591Z,14.10
2022-09-18T13:18:29.612Z,14.00
2022-09-18T13:21:03.866Z,14.10
2022-09-18T13:23:39.116Z,14.10
2022-09-18T13:26:15.398Z,14.00
2022-09-18T13:28:45.494Z,14.00
2022-09-18T13:31:27.701Z,14.20
2022-09-18T13:34:00.766Z,14.20
2022-09-18T13:36:33.745Z,14.30
2022-09-18T13:39:06.057Z,14.30
2022-09-18T13:41:48.044Z,14.30
2022-09-18T13:44:22.224Z,14.20
2022-09-18T13:46:53.215Z,14.20
2022-09-18T13:49:31.929Z,14.10
2022-09-18T13:52:43.335Z,14.00
2022-09-18T13:55:36.783Z,14.00
2022-09-18T13:58:47.962Z,13.80
2022-09-18T14:02:03.421Z,13.70
2022-09-18T14:05:21.739Z,13.60
2022-09-18T14:08:04.033Z,13.50
2022-09-18T14:10:59.461Z,13.40
2022-09-18T14:13:43.068Z,13.30
2022-09-18T14:16:26.118Z,13.30
2022-09-18T14:19:03.066Z,13.20
2022-09-18T14:21:34.509Z,13.30
2022-09-18T14:24:57.655Z,13.20
2022-09-18T14:27:37.987Z,13.10
2022-09-18T14:30:19.892Z,13.10
2022-09-18T14:33:16.794Z,13.10
2022-09-18T14:35:55.381Z,13.10
2022-09-18T14:38:29.196Z,13.00
2022-09-18T14:41:07.051Z,12.90
2022-09-18T14:43:38.350Z,12.90
2022-09-18T14:46:18.631Z,12.20
2022-09-18T14:48:47.155Z,12.90
2022-09-18T14:51:22.494Z,12.90
2022-09-18T14:53:55.969Z,12.80
2022-09-18T14:56:29.800Z,12.90
2022-09-18T14:59:01.534Z,12.80
2022-09-18T15:01:33.780Z,12.90
2022-09-18T15:04:07.503Z,12.80
2022-09-18T15:06:41.072Z,12.70
2022-09-18T15:09:14.200Z,12.70
2022-09-18T15:12:01.862Z,12.70
2022-09-18T15:14:41.811Z,12.70
2022-09-18T15:17:21.123Z,12.60
2022-09-18T15:19:58.619Z,12.60
2022-09-18T15:22:28.290Z,12.60
2022-09-18T15:25:00.659Z,12.50
2022-09-18T15:27:30.974Z,12.50
2022-09-18T15:30:05.141Z,12.40
2022-09-18T15:32:42.405Z,12.30
2022-09-18T15:35:21.168Z,12.30
2022-09-18T15:37:54.381Z,12.20
2022-09-18T15:40:30.130Z,12.20
2022-09-18T15:43:03.516Z,12.10
2022-09-18T15:45:35.346Z,11.70
2022-09-18T15:48:35.574Z,11.00
2022-09-18T15:51:10.258Z,10.10
2022-09-18T15:53:39.690Z,9.60
2022-09-18T15:56:20.795Z,9.20
2022-09-18T15:58:57.932Z,8.90
2022-09-18T16:01:35.278Z,8.80
2022-09-18T16:04:17.874Z,8.60
2022-09-18T16:06:56.795Z,8.50
2022-09-18T16:09:35.615Z,8.50
2022-09-18T16:12:36.180Z,8.50
2022-09-18T16:15:19.254Z,8.40
2022-09-18T16:18:19.824Z,8.40
2022-09-18T16:21:05.612Z,8.30
2022-09-18T16:23:37.068Z,8.40
2022-09-18T16:26:11.519Z,8.30
2022-09-18T16:28:44.692Z,8.30
2022-09-18T16:31:16.043Z,8.30
2022-09-18T16:33:52.400Z,8.20
2022-09-18T16:36:31.355Z,8.30
2022-09-18T16:39:02.236Z,8.30
2022-09-18T16:41:31.998Z,8.30
2022-09-18T16:44:01.603Z,8.40
2022-09-18T16:46:38.450Z,8.40
2022-09-18T16:49:07.880Z,8.30
2022-09-18T16:51:37.681Z,8.30
2022-09-18T16:54:07.381Z,8.20
2022-09-18T16:56:43.649Z,8.20
2022-09-18T16:59:14.171Z,8.20
2022-09-18T17:02:00.511Z,8.30
2022-09-18T17:04:31.369Z,8.30
2022-09-18T17:07:01.603Z,8.30
2022-09-18T17:09:31.404Z,8.30
2022-09-18T17:12:04.930Z,8.30
2022-09-18T17:14:34.586Z,8.30
2022-09-18T17:17:04.157Z,8.40
2022-09-18T17:19:32.600Z,8.50
2022-09-18T17:22:02.481Z,8.50
2022-09-18T17:24:30.711Z,8.50
2022-09-18T17:26:59.677Z,8.70
2022-09-18T17:29:28.745Z,8.70
2022-09-18T17:31:57.695Z,8.70
2022-09-18T17:34:26.142Z,8.80
2022-09-18T17:36:54.423Z,8.80
2022-09-18T17:39:24.044Z,8.80
2022-09-18T17:41:52.697Z,8.70
2022-09-18T17:44:21.512Z,8.70
2022-09-18T17:46:52.496Z,8.70
2022-09-18T17:49:21.781Z,8.60
2022-09-18T17:51:50.625Z,8.60
2022-09-18T17:54:19.757Z,8.60
2022-09-18T17:56:49.327Z,8.50
2022-09-18T17:59:18.218Z,8.50
2022-09-18T18:01:48.671Z,8.40
2022-09-18T18:04:18.234Z,8.40
2022-09-18T18:06:48.955Z,8.40
2022-09-18T18:09:17.557Z,8.30
2022-09-18T18:11:46.694Z,8.30
2022-09-18T18:14:19.803Z,8.30
2022-09-18T18:16:52.376Z,8.20
2022-09-18T18:19:21.318Z,8.30
2022-09-18T18:21:49.757Z,8.30
2022-09-18T18:24:18.953Z,8.30
2022-09-18T18:26:48.784Z,8.50
2022-09-18T18:29:20.461Z,8.50
2022-09-18T18:31:50.332Z,8.50
2022-09-18T18:34:21.056Z,8.60
2022-09-18T18:36:51.254Z,8.70
2022-09-18T18:39:20.813Z,8.70
2022-09-18T18:41:50.304Z,8.80
2022-09-18T18:44:20.442Z,8.80
2022-09-18T18:46:50.091Z,8.80
2022-09-18T18:49:18.962Z,8.90
2022-09-18T18:51:51.747Z,9.00
2022-09-18T18:54:22.999Z,9.10
2022-09-18T18:56:51.631Z,9.20
2022-09-18T18:59:24.281Z,9.40
2022-09-18T19:01:56.923Z,9.50
2022-09-18T19:04:26.926Z,9.60
2022-09-18T19:06:56.498Z,9.70
2022-09-18T19:09:28.514Z,9.80
2022-09-18T19:11:57.507Z,9.80
2022-09-18T19:14:29.659Z,9.80
2022-09-18T19:16:59.087Z,9.80
2022-09-18T19:19:29.241Z,9.80
2022-09-18T19:21:59.988Z,9.80
2022-09-18T19:24:30.006Z,9.70
2022-09-18T19:26:59.362Z,9.70
2022-09-18T19:29:30.525Z,9.70
2022-09-18T19:32:00.262Z,9.60
2022-09-18T19:34:29.394Z,9.60
2022-09-18T19:36:59.262Z,9.60
2022-09-18T19:39:28.405Z,9.60
2022-09-18T19:42:01.968Z,9.60
2022-09-18T19:44:38.276Z,9.70
2022-09-18T19:47:21.198Z,9.70
2022-09-18T19:49:50.899Z,9.80
2022-09-18T19:52:24.085Z,9.80
2022-09-18T19:54:54.520Z,9.90
2022-09-18T19:57:24.685Z,9.90
2022-09-18T19:59:57.001Z,10.00
2022-09-18T20:02:26.361Z,10.00
2022-09-18T20:04:54.651Z,10.00
2022-09-18T20:07:23.478Z,10.00
2022-09-18T20:09:51.871Z,10.10
2022-09-18T20:12:20.573Z,10.00
2022-09-18T20:14:49.375Z,10.10
2022-09-18T20:17:19.195Z,10.10
2022-09-18T20:19:47.465Z,10.10
2022-09-18T20:22:15.780Z,10.20
2022-09-18T20:24:44.065Z,10.20
2022-09-18T20:27:12.669Z,10.10
2022-09-18T20:29:41.373Z,10.10
2022-09-18T20:32:09.712Z,9.90
2022-09-18T20:34:40.009Z,9.90
2022-09-18T20:37:10.180Z,9.80
2022-09-18T20:39:39.159Z,9.80
2022-09-18T20:42:08.184Z,9.80
2022-09-18T20:44:36.434Z,9.70
2022-09-18T20:47:06.878Z,9.70
2022-09-18T20:49:39.677Z,9.60
2022-09-18T20:52:14.281Z,9.70
2022-09-18T20:54:42.791Z,9.60
2022-09-18T20:57:12.304Z,9.60
2022-09-18T20:59:41.543Z,9.60
2022-09-18T21:02:10.734Z,9.60
2022-09-18T21:04:39.648Z,9.60
2022-09-18T21:07:09.559Z,9.60
2022-09-18T21:09:38.413Z,9.60
2022-09-18T21:12:07.465Z,9.70
2022-09-18T21:14:36.810Z,9.70
2022-09-18T21:17:10.648Z,9.70
2022-09-18T21:19:39.834Z,9.60
2022-09-18T21:22:09.995Z,9.60
2022-09-18T21:24:38.769Z,9.60
2022-09-18T21:27:09.716Z,9.70
2022-09-18T21:29:40.578Z,9.60
2022-09-18T21:32:09.869Z,9.60
2022-09-18T21:34:38.542Z,9.60
2022-09-18T21:37:12.015Z,9.70
2022-09-18T21:39:42.455Z,9.70
2022-09-18T21:42:10.901Z,9.70
2022-09-18T21:44:39.616Z,9.70
2022-09-18T21:47:10.693Z,9.70
2022-09-18T21:49:39.866Z,9.70
2022-09-18T21:52:09.947Z,9.70
2022-09-18T21:54:39.052Z,9.70
2022-09-18T21:57:07.327Z,9.60
2022-09-18T21:59:35.909Z,9.60
2022-09-18T22:02:04.775Z,9.70
2022-09-18T22:04:34.062Z,9.70
2022-09-18T22:07:06.174Z,9.80
2022-09-18T22:09:38.128Z,9.70
2022-09-18T22:12:08.661Z,9.70
2022-09-18T22:14:38.224Z,9.80
2022-09-18T22:17:09.072Z,9.80
2022-09-18T22:19:41.298Z,9.70
2022-09-18T22:22:10.320Z,9.70
2022-09-18T22:24:40.469Z,9.60
2022-09-18T22:27:10.180Z,9.60
2022-09-18T22:29:43.389Z,9.50
2022-09-18T22:32:12.175Z,9.50
2022-09-18T22:34:41.533Z,9.50
2022-09-18T22:37:11.542Z,9.50
2022-09-18T22:39:41.644Z,9.50
2022-09-18T22:42:10.089Z,9.50
2022-09-18T22:44:39.580Z,9.60
2022-09-18T22:47:09.465Z,9.50
2022-09-18T22:49:38.242Z,9.50
2022-09-18T22:52:07.356Z,9.60
2022-09-18T22:54:35.969Z,9.60
2022-09-18T22:57:06.524Z,9.60
2022-09-18T22:59:35.413Z,9.60
2022-09-18T23:02:07.948Z,9.60
2022-09-18T23:04:36.902Z,9.70
2022-09-18T23:07:05.353Z,9.70
2022-09-18T23:09:33.947Z,9.70
2022-09-18T23:12:02.845Z,9.80
2022-09-18T23:14:33.068Z,9.80
2022-09-18T23:17:02.834Z,9.80
2022-09-18T23:19:34.360Z,9.80
2022-09-18T23:22:03.109Z,9.80
2022-09-18T23:24:32.571Z,9.80
2022-09-18T23:27:01.962Z,9.90
2022-09-18T23:29:32.691Z,9.80
2022-09-18T23:32:01.071Z,9.80
2022-09-18T23:34:33.558Z,9.90
2022-09-18T23:37:02.704Z,9.80
2022-09-18T23:39:33.807Z,9.90
2022-09-18T23:42:05.711Z,9.90
2022-09-18T23:44:35.571Z,9.90
2022-09-18T23:47:04.785Z,9.90
2022-09-18T23:49:33.447Z,9.90
2022-09-18T23:52:02.534Z,9.90
2022-09-18T23:54:32.979Z,9.80
2022-09-18T23:57:02.136Z,9.80
2022-09-18T23:59:30.562Z,9.90
